Time;durP1;ratioP1;P1;durP2;ratioP2;P2;SDS_P1;SDS_P2;PMS_P1;PMS_P2;Temp;Humidity;BMP_temperature;BMP_pressure;BME280_temperature;BME280_humidity;BME280_pressure;Samples;Min_cycle;Max_cycle;Signal;HPM_P1;HPM_P2
2022/04/09 00:02:08;;;;;;;9.90;2.27;;;;;3.40;100090.00;;;;10544399;28;20215;-81
2022/04/09 00:07:10;;;;;;;12.93;3.27;;;;;3.50;100095.00;;;;10527806;28;20242;-81
2022/04/09 00:12:12;;;;;;;11.63;2.87;;;;;3.60;100103.00;;;;10530181;28;20245;-80
2022/04/09 00:17:13;;;;;;;10.90;2.60;;;;;3.60;100113.00;;;;10535449;28;20204;-80
2022/04/09 00:22:15;;;;;;;13.20;2.63;;;;;3.50;100128.00;;;;10535705;28;20298;-81
2022/04/09 00:27:17;;;;;;;7.93;2.87;;;;;3.40;100130.00;;;;10577784;27;20572;-81
2022/04/09 00:32:19;;;;;;;19.37;2.77;;;;;3.50;100146.00;;;;10577798;27;20195;-81
2022/04/09 00:37:21;;;;;;;10.47;3.50;;;;;3.50;100152.00;;;;10576969;27;20242;-80
2022/04/09 00:42:25;;;;;;;9.30;3.27;;;;;3.60;100168.00;;;;10610757;27;20191;-80
2022/04/09 00:47:27;;;;;;;13.60;4.13;;;;;3.50;100172.00;;;;10577045;27;20249;-80
2022/04/09 00:52:38;;;;;;;10.67;4.17;;;;;3.50;100193.00;;;;10555324;28;20226;-80
2022/04/09 00:57:44;;;;;;;17.43;4.63;;;;;3.50;100198.00;;;;10513466;28;20282;-80
2022/04/09 01:02:46;;;;;;;8.93;3.97;;;;;3.50;100203.00;;;;10491578;28;20254;-80
2022/04/09 01:07:48;;;;;;;12.97;4.43;;;;;3.50;100213.00;;;;10508691;28;20195;-80
2022/04/09 01:12:50;;;;;;;16.33;4.33;;;;;3.40;100218.00;;;;10508142;28;20200;-80
2022/04/09 01:17:53;;;;;;;12.80;4.77;;;;;3.20;100232.00;;;;10524740;28;20262;-80
2022/04/09 01:22:55;;;;;;;16.20;3.60;;;;;3.20;100236.00;;;;10563907;27;20214;-80
2022/04/09 01:27:58;;;;;;;12.70;3.23;;;;;3.20;100243.00;;;;10501709;28;20590;-80
2022/04/09 01:33:00;;;;;;;12.17;3.83;;;;;3.30;100250.00;;;;10549983;28;20608;-80
2022/04/09 01:38:02;;;;;;;8.57;3.07;;;;;3.20;100253.00;;;;10531718;28;20224;-80
2022/04/09 01:43:05;;;;;;;9.10;3.00;;;;;3.20;100259.00;;;;10531885;28;20626;-81
2022/04/09 01:48:08;;;;;;;15.30;3.27;;;;;3.10;100271.00;;;;10548567;28;20185;-81
2022/04/09 01:53:10;;;;;;;14.23;3.20;;;;;3.10;100284.00;;;;10552368;27;20201;-81
2022/04/09 01:58:12;;;;;;;21.77;3.90;;;;;3.00;100289.00;;;;10473163;28;20241;-81
2022/04/09 02:03:18;;;;;;;14.87;4.13;;;;;2.90;100299.00;;;;10505113;28;20192;-81
2022/04/09 02:08:20;;;;;;;13.93;3.83;;;;;2.90;100295.00;;;;10506065;28;20189;-80
2022/04/09 02:13:22;;;;;;;13.27;3.63;;;;;2.90;100309.00;;;;10489426;28;20287;-80
2022/04/09 02:18:26;;;;;;;9.43;3.07;;;;;2.90;100305.00;;;;10533448;28;20218;-80
2022/04/09 02:23:28;;;;;;;12.90;3.40;;;;;2.90;100322.00;;;;10505891;28;20301;-80
2022/04/09 02:28:31;;;;;;;13.07;2.93;;;;;2.90;100322.00;;;;10514767;28;20211;-80
2022/04/09 02:33:34;;;;;;;15.90;3.40;;;;;3.00;100336.00;;;;10514954;28;20458;-80
2022/04/09 02:38:36;;;;;;;13.53;3.43;;;;;3.00;100345.00;;;;10514324;28;20216;-80
2022/04/09 02:43:41;;;;;;;9.83;3.37;;;;;3.00;100345.00;;;;10498086;28;20667;-80
2022/04/09 02:48:44;;;;;;;22.70;3.67;;;;;3.00;100347.00;;;;10509874;28;20717;-80
2022/04/09 02:53:50;;;;;;;10.67;3.63;;;;;3.00;100357.00;;;;10556599;27;20192;-81
2022/04/09 02:58:52;;;;;;;12.77;3.40;;;;;3.00;100368.00;;;;10570834;27;20210;-80
2022/04/09 03:03:54;;;;;;;12.17;3.20;;;;;3.00;100368.00;;;;10571718;27;20282;-81
2022/04/09 03:08:57;;;;;;;11.30;3.20;;;;;3.10;100377.00;;;;10571711;27;20180;-80
2022/04/09 03:13:59;;;;;;;16.27;3.90;;;;;3.10;100383.00;;;;10550913;27;20291;-81
2022/04/09 03:19:02;;;;;;;11.73;3.30;;;;;3.10;100401.00;;;;10503868;28;20213;-80
2022/04/09 03:24:04;;;;;;;11.47;3.10;;;;;3.10;100405.00;;;;10516759;28;20562;-80
2022/04/09 03:29:09;;;;;;;14.17;4.00;;;;;3.00;100418.00;;;;10528721;28;20211;-80
2022/04/09 03:34:12;;;;;;;14.63;4.20;;;;;2.90;100425.00;;;;10545581;28;20559;-80
2022/04/09 03:39:14;;;;;;;10.73;3.33;;;;;2.70;100426.00;;;;10526086;28;20212;-80
2022/04/09 03:44:17;;;;;;;15.57;3.20;;;;;2.70;100442.00;;;;10507197;28;20204;-80
2022/04/09 03:49:24;;;;;;;13.10;3.90;;;;;2.60;100452.00;;;;10534163;28;20279;-81
2022/04/09 03:54:26;;;;;;;12.17;3.60;;;;;2.50;100461.00;;;;10586974;27;20199;-80
2022/04/09 03:59:29;;;;;;;22.10;5.03;;;;;2.50;100465.00;;;;10578451;27;20208;-80
2022/04/09 04:04:32;;;;;;;14.60;4.23;;;;;2.50;100475.00;;;;10557393;28;20204;-81
2022/04/09 04:09:34;;;;;;;22.17;4.17;;;;;2.50;100482.00;;;;10536155;28;20195;-80
2022/04/09 04:14:36;;;;;;;13.70;3.83;;;;;2.50;100484.00;;;;10532723;28;20201;-80
2022/04/09 04:19:39;;;;;;;15.00;4.57;;;;;2.50;100494.00;;;;10494246;28;20218;-80
2022/04/09 04:24:41;;;;;;;13.47;4.23;;;;;2.50;100503.00;;;;10510734;28;20193;-81
2022/04/09 04:29:43;;;;;;;10.60;4.07;;;;;2.50;100512.00;;;;10515607;28;20288;-81
2022/04/09 04:34:45;;;;;;;19.10;4.43;;;;;2.40;100519.00;;;;10535543;28;20188;-81
2022/04/09 04:39:47;;;;;;;16.13;3.77;;;;;2.40;100527.00;;;;10551661;28;20321;-81
2022/04/09 04:44:49;;;;;;;16.60;3.70;;;;;2.50;100531.00;;;;10534576;28;20325;-81
2022/04/09 04:49:51;;;;;;;16.50;4.13;;;;;2.70;100546.00;;;;10534708;28;20692;-81
2022/04/09 04:54:53;;;;;;;14.93;4.20;;;;;2.90;100556.00;;;;10514522;28;20208;-80
2022/04/09 04:59:58;;;;;;;10.63;4.37;;;;;3.00;100560.00;;;;10524374;28;20258;-81
2022/04/09 05:05:08;;;;;;;14.43;4.40;;;;;3.00;100564.00;;;;10510693;28;20185;-80
2022/04/09 05:10:18;;;;;;;15.37;6.70;;;;;3.00;100568.00;;;;10508931;28;20195;-80
2022/04/09 05:15:21;;;;;;;23.67;8.90;;;;;2.90;100589.00;;;;10475340;28;20212;-80
2022/04/09 05:20:25;;;;;;;21.33;7.00;;;;;2.80;100599.00;;;;10475258;28;20780;-81
2022/04/09 05:25:31;;;;;;;20.37;6.17;;;;;2.80;100594.00;;;;10491565;28;20335;-80
2022/04/09 05:30:36;;;;;;;23.60;6.20;;;;;2.90;100601.00;;;;10529685;28;20704;-80
2022/04/09 05:35:38;;;;;;;15.97;7.30;;;;;3.00;100606.00;;;;10506574;28;20227;-80
2022/04/09 05:40:42;;;;;;;17.03;5.80;;;;;3.30;100617.00;;;;10510941;28;20271;-81
2022/04/09 05:45:53;;;;;;;15.57;5.40;;;;;3.70;100625.00;;;;10525061;28;20201;-81
2022/04/09 05:51:03;;;;;;;14.23;5.33;;;;;4.10;100625.00;;;;10497770;28;20584;-81
2022/04/09 05:56:14;;;;;;;18.87;3.80;;;;;4.40;100629.00;;;;10524985;28;20258;-80
2022/04/09 06:01:17;;;;;;;15.03;4.03;;;;;4.60;100633.00;;;;10509062;28;20652;-80
2022/04/09 06:06:20;;;;;;;17.63;4.67;;;;;4.90;100641.00;;;;10508376;28;20247;-81
2022/04/09 06:11:29;;;;;;;12.60;3.30;;;;;5.10;100647.00;;;;10506616;28;20216;-81
2022/04/09 06:16:38;;;;;;;21.17;5.60;;;;;5.40;100651.00;;;;10474265;28;20567;-81
2022/04/09 06:21:43;;;;;;;19.00;4.43;;;;;5.50;100654.00;;;;10475709;28;20201;-80
2022/04/09 06:26:48;;;;;;;14.07;4.53;;;;;6.10;100659.00;;;;10492478;28;20378;-81
2022/04/09 06:31:51;;;;;;;13.63;5.20;;;;;6.60;100671.00;;;;10524435;28;20197;-80
2022/04/09 06:36:55;;;;;;;13.80;5.70;;;;;7.10;100678.00;;;;10524945;28;20272;-81
2022/04/09 06:41:58;;;;;;;16.70;4.67;;;;;7.60;100683.00;;;;10495351;28;20204;-80
2022/04/09 06:47:20;;;;;;;13.13;4.43;;;;;8.00;100698.00;;;;10550227;28;20188;-81
2022/04/09 06:52:31;;;;;;;15.27;5.17;;;;;8.40;100705.00;;;;10531915;28;20589;-81
2022/04/09 06:58:04;;;;;;;22.33;6.07;;;;;8.70;100712.00;;;;10551583;28;20218;-79
2022/04/09 07:03:14;;;;;;;10.40;3.90;;;;;9.10;100718.00;;;;10491503;28;20197;-79
2022/04/09 07:08:16;;;;;;;17.37;3.73;;;;;9.40;100720.00;;;;10544157;28;20257;-79
2022/04/09 07:13:18;;;;;;;16.97;4.33;;;;;9.70;100727.00;;;;10532566;28;20292;-81
2022/04/09 07:18:20;;;;;;;16.63;3.90;;;;;9.90;100722.00;;;;10550718;28;20689;-79
2022/04/09 07:23:21;;;;;;;14.17;3.93;;;;;10.20;100721.00;;;;10532861;28;20619;-78
2022/04/09 07:28:23;;;;;;;13.90;3.60;;;;;10.50;100726.00;;;;10549711;28;20627;-78
2022/04/09 07:33:25;;;;;;;11.67;3.37;;;;;10.60;100739.00;;;;10527561;28;20212;-79
2022/04/09 07:38:30;;;;;;;9.67;3.33;;;;;10.80;100733.00;;;;10524430;28;20216;-78
2022/04/09 07:43:32;;;;;;;11.40;3.40;;;;;11.20;100738.00;;;;10508374;28;20207;-79
2022/04/09 07:48:35;;;;;;;12.90;3.30;;;;;11.30;100743.00;;;;10513156;28;20200;-78
2022/04/09 07:53:38;;;;;;;15.43;4.20;;;;;11.50;100757.00;;;;10492445;28;20193;-79
2022/04/09 07:58:42;;;;;;;18.17;4.23;;;;;11.90;100759.00;;;;10525187;28;20217;-78
2022/04/09 08:03:44;;;;;;;11.87;3.33;;;;;11.80;100769.00;;;;10523650;28;20189;-79
2022/04/09 08:08:46;;;;;;;9.37;3.33;;;;;12.10;100785.00;;;;10525155;28;20651;-79
2022/04/09 08:13:49;;;;;;;15.33;3.33;;;;;12.40;100781.00;;;;10491560;28;20212;-78
2022/04/09 08:18:51;;;;;;;11.77;3.37;;;;;12.10;100776.00;;;;10507657;28;20262;-78
2022/04/09 08:23:53;;;;;;;7.10;3.07;;;;;12.20;100801.00;;;;10524295;28;20208;-78
2022/04/09 08:28:56;;;;;;;12.00;3.17;;;;;12.90;100800.00;;;;10497626;28;20263;-79
2022/04/09 08:33:58;;;;;;;7.43;2.73;;;;;13.00;100781.00;;;;10534797;28;20566;-78
2022/04/09 08:39:00;;;;;;;8.63;2.60;;;;;12.70;100797.00;;;;10523050;28;20236;-78
2022/04/09 08:44:03;;;;;;;7.77;2.60;;;;;11.40;100827.00;;;;10539998;28;20234;-79
2022/04/09 08:49:06;;;;;;;9.33;2.90;;;;;11.40;100797.00;;;;10555669;28;20233;-78
2022/04/09 08:54:08;;;;;;;6.73;3.00;;;;;12.00;100798.00;;;;10585709;27;20199;-79
2022/04/09 08:59:11;;;;;;;7.57;2.30;;;;;12.30;100811.00;;;;10563599;27;20682;-78
2022/04/09 09:04:16;;;;;;;8.63;2.20;;;;;12.70;100822.00;;;;10520809;28;20250;-79
2022/04/09 09:09:29;;;;;;;6.50;2.37;;;;;13.80;100814.00;;;;10530539;28;20193;-79
2022/04/09 09:14:33;;;;;;;10.77;2.90;;;;;14.80;100827.00;;;;10530369;28;20176;-79
2022/04/09 09:19:50;;;;;;;7.20;2.37;;;;;15.00;100828.00;;;;10479657;28;20262;-78
2022/04/09 09:25:21;;;;;;;7.83;2.13;;;;;15.10;100830.00;;;;10513683;28;20196;-78
2022/04/09 09:30:23;;;;;;;8.70;2.80;;;;;14.20;100836.00;;;;10488734;28;20191;-79
2022/04/09 09:35:25;;;;;;;7.53;2.70;;;;;15.50;100836.00;;;;10479767;28;20197;-79
2022/04/09 09:40:31;;;;;;;6.07;2.20;;;;;15.50;100834.00;;;;10496658;28;20216;-80
2022/04/09 09:45:40;;;;;;;5.90;3.00;;;;;15.40;100844.00;;;;10495979;28;20224;-79
2022/04/09 09:50:42;;;;;;;5.97;2.22;;;;;16.20;100834.00;;;;10501490;28;20180;-79
2022/04/09 09:55:44;;;;;;;9.50;2.58;;;;;16.00;100846.00;;;;10513142;28;20242;-78
2022/04/09 10:00:47;;;;;;;6.10;2.33;;;;;14.40;100845.00;;;;10535619;28;20242;-78
2022/04/09 10:05:50;;;;;;;8.87;2.60;;;;;12.70;100861.00;;;;10556242;28;20267;-79
2022/04/09 10:10:57;;;;;;;8.20;2.70;;;;;13.10;100846.00;;;;10539243;28;20227;-81
2022/04/09 10:16:01;;;;;;;6.87;2.40;;;;;14.70;100837.00;;;;10512005;28;20181;-78
2022/04/09 10:21:03;;;;;;;6.43;2.63;;;;;15.50;100844.00;;;;10496219;28;20209;-79
2022/04/09 10:26:06;;;;;;;10.13;3.23;;;;;13.80;100851.00;;;;10513877;28;20259;-81
2022/04/09 10:31:23;;;;;;;5.90;3.00;;;;;12.90;100861.00;;;;10499317;28;20193;-81
2022/04/09 10:36:40;;;;;;;5.90;2.73;;;;;13.80;100853.00;;;;10512161;28;20211;-79
2022/04/09 10:41:42;;;;;;;7.93;2.70;;;;;15.50;100850.00;;;;10495624;28;20675;-79
2022/04/09 10:46:51;;;;;;;10.30;6.07;;;;;16.90;100845.00;;;;10495579;28;20201;-78
2022/04/09 10:52:03;;;;;;;5.72;2.60;;;;;17.80;100844.00;;;;10506782;28;20283;-79
2022/04/09 10:57:07;;;;;;;4.13;1.90;;;;;17.80;100839.00;;;;10535706;28;20594;-78
2022/04/09 11:02:10;;;;;;;4.63;2.20;;;;;17.50;100836.00;;;;10535288;28;20284;-79
2022/04/09 11:07:23;;;;;;;5.28;2.42;;;;;17.40;100833.00;;;;10518096;28;20659;-79
2022/04/09 11:12:30;;;;;;;8.88;2.40;;;;;18.80;100821.00;;;;10517567;28;20195;-79
2022/04/09 11:17:38;;;;;;;3.55;2.10;;;;;19.70;100826.00;;;;10550665;28;20208;-79
2022/04/09 11:22:51;;;;;;;9.18;2.63;;;;;18.60;100852.00;;;;10550550;28;20196;-79
2022/04/09 11:28:19;;;;;;;5.25;1.80;;;;;14.40;100845.00;;;;10567786;28;20189;-79
2022/04/09 11:33:21;;;;;;;4.97;1.63;;;;;11.60;100844.00;;;;10507606;28;20192;-79
2022/04/09 11:38:24;;;;;;;3.33;1.20;;;;;11.30;100844.00;;;;10526395;28;20205;-78
2022/04/09 11:43:27;;;;;;;3.03;1.27;;;;;11.00;100853.00;;;;10525350;28;20205;-79
2022/04/09 11:48:29;;;;;;;4.30;1.57;;;;;11.00;100873.00;;;;10524934;28;20651;-79
2022/04/09 11:53:31;;;;;;;3.13;0.80;;;;;10.40;100872.00;;;;10490429;28;20259;-79
2022/04/09 11:58:34;;;;;;;4.73;1.30;;;;;10.10;100861.00;;;;10489484;28;20200;-79
2022/04/09 12:03:37;;;;;;;3.17;1.40;;;;;13.30;100851.00;;;;10473810;28;20216;-78
2022/04/09 12:08:39;;;;;;;4.87;1.50;;;;;15.80;100850.00;;;;10476965;28;20300;-79
2022/04/09 12:13:42;;;;;;;3.03;1.40;;;;;16.70;100843.00;;;;10481471;28;20246;-79
2022/04/09 12:18:46;;;;;;;3.83;1.33;;;;;18.30;100856.00;;;;10530854;28;20262;-79
2022/04/09 12:24:05;;;;;;;2.45;1.40;;;;;19.20;100851.00;;;;10497941;28;20200;-80
2022/04/09 12:29:17;;;;;;;2.95;1.20;;;;;19.70;100845.00;;;;10482178;28;20201;-79
2022/04/09 12:34:19;;;;;;;2.80;1.30;;;;;19.40;100857.00;;;;10524638;28;20200;-79
2022/04/09 12:39:24;;;;;;;1.88;1.00;;;;;19.20;100852.00;;;;10531041;28;20216;-79
2022/04/09 12:44:30;;;;;;;2.45;1.00;;;;;17.40;100865.00;;;;10497496;28;20295;-79
2022/04/09 12:49:37;;;;;;;2.38;0.90;;;;;17.20;100876.00;;;;10513898;28;20185;-79
2022/04/09 12:54:39;;;;;;;3.03;1.15;;;;;15.70;100868.00;;;;10536142;28;20204;-78
2022/04/09 12:59:41;;;;;;;4.18;1.13;;;;;16.10;100871.00;;;;10496487;28;20230;-79
2022/04/09 13:04:43;;;;;;;1.90;1.10;;;;;15.10;100870.00;;;;10512145;28;20674;-79
2022/04/09 13:09:45;;;;;;;6.17;1.20;;;;;15.70;100885.00;;;;10529486;28;20209;-79
2022/04/09 13:14:46;;;;;;;2.17;1.23;;;;;16.70;100878.00;;;;10495317;28;20279;-79
2022/04/09 13:19:48;;;;;;;2.40;0.80;;;;;15.00;100864.00;;;;10521934;28;20686;-78
2022/04/09 13:24:56;;;;;;;3.73;0.83;;;;;15.20;100885.00;;;;10512147;28;20211;-79
2022/04/09 13:29:58;;;;;;;3.10;1.10;;;;;14.80;100893.00;;;;10577119;27;20191;-79
2022/04/09 13:35:00;;;;;;;1.70;0.90;;;;;13.60;100889.00;;;;10613369;27;20283;-79
2022/04/09 13:40:02;;;;;;;1.73;0.87;;;;;14.90;100867.00;;;;10585699;27;20213;-78
2022/04/09 13:45:06;;;;;;;3.77;1.47;;;;;18.90;100887.00;;;;10538178;28;20201;-78
2022/04/09 13:50:10;;;;;;;2.70;1.23;;;;;23.00;100864.00;;;;10552601;28;20180;-79
2022/04/09 13:55:12;;;;;;;3.03;1.05;;;;;24.30;100885.00;;;;10496904;28;20235;-78
2022/04/09 14:00:15;;;;;;;3.28;1.10;;;;;21.40;100852.00;;;;10493588;28;20209;-79
2022/04/09 14:05:19;;;;;;;3.47;1.00;;;;;16.50;100923.00;;;;10492671;28;20193;-78
2022/04/09 14:10:21;;;;;;;2.13;1.00;;;;;19.60;100892.00;;;;10513742;28;20246;-78
2022/04/09 14:15:23;;;;;;;2.13;1.20;;;;;21.60;100870.00;;;;10534084;28;20662;-78
2022/04/09 14:20:25;;;;;;;5.63;1.20;;;;;24.50;100859.00;;;;10549532;28;20208;-79
2022/04/09 14:25:27;;;;;;;1.17;0.90;;;;;25.30;100853.00;;;;10558249;27;20203;-78
2022/04/09 14:30:29;;;;;;;2.92;1.00;;;;;18.70;100914.00;;;;10542685;28;20184;-79
2022/04/09 14:35:31;;;;;;;3.22;1.10;;;;;22.40;100873.00;;;;10549781;28;20198;-78
2022/04/09 14:40:34;;;;;;;1.98;1.35;;;;;22.10;100892.00;;;;10532969;28;20219;-78
2022/04/09 14:45:36;;;;;;;1.77;1.30;;;;;22.00;100900.00;;;;10515686;28;20228;-79
2022/04/09 14:50:38;;;;;;;3.20;1.20;;;;;21.70;100907.00;;;;10546022;28;20196;-78
2022/04/09 14:55:46;;;;;;;2.20;0.98;;;;;20.70;100910.00;;;;10513480;28;20700;-79
2022/04/09 15:00:48;;;;;;;3.90;1.42;;;;;19.80;100936.00;;;;10532182;28;20196;-78
2022/04/09 15:05:50;;;;;;;0.88;0.70;;;;;18.90;100927.00;;;;10499469;28;20283;-79
2022/04/09 15:10:53;;;;;;;2.50;1.27;;;;;19.80;100930.00;;;;10498408;28;20579;-78
2022/04/09 15:15:54;;;;;;;1.63;1.00;;;;;19.70;100938.00;;;;10536448;28;20200;-78
2022/04/09 15:20:58;;;;;;;2.00;1.17;;;;;17.00;100949.00;;;;10534875;28;20212;-78
2022/04/09 15:26:00;;;;;;;5.47;1.10;;;;;17.50;100942.00;;;;10591028;27;20184;-78
2022/04/09 15:31:03;;;;;;;1.40;0.90;;;;;16.00;100951.00;;;;10574145;28;20187;-79
2022/04/09 15:36:05;;;;;;;3.10;1.30;;;;;16.60;100960.00;;;;10515777;28;20200;-79
2022/04/09 15:41:07;;;;;;;2.63;1.30;;;;;14.20;100957.00;;;;10546929;28;20219;-78
2022/04/09 15:46:09;;;;;;;3.17;1.10;;;;;13.90;100963.00;;;;10554975;28;20206;-79
2022/04/09 15:51:11;;;;;;;2.87;1.00;;;;;15.40;100945.00;;;;10561230;27;20194;-78
2022/04/09 15:56:18;;;;;;;5.03;1.50;;;;;14.50;100966.00;;;;10577669;27;20215;-79
2022/04/09 16:01:21;;;;;;;3.03;1.30;;;;;13.10;100973.00;;;;10555788;28;20283;-79
2022/04/09 16:06:23;;;;;;;2.63;1.30;;;;;12.00;100971.00;;;;10539125;28;20200;-78
2022/04/09 16:11:25;;;;;;;2.20;0.80;;;;;12.40;100951.00;;;;10538046;28;20211;-78
2022/04/09 16:16:28;;;;;;;2.77;1.20;;;;;12.70;100983.00;;;;10555028;28;20196;-79
2022/04/09 16:21:30;;;;;;;1.63;0.97;;;;;12.30;100980.00;;;;10568824;27;20211;-80
2022/04/09 16:26:32;;;;;;;3.20;1.10;;;;;11.50;100984.00;;;;10525670;28;20188;-80
2022/04/09 16:31:37;;;;;;;2.13;1.10;;;;;11.20;100995.00;;;;10536867;28;20188;-79
2022/04/09 16:36:39;;;;;;;4.50;0.80;;;;;11.40;100998.00;;;;10536338;28;20188;-78
2022/04/09 16:41:41;;;;;;;1.97;0.80;;;;;11.60;100994.00;;;;10511192;28;20212;-79
2022/04/09 16:46:44;;;;;;;2.63;1.10;;;;;11.40;100995.00;;;;10512952;28;20719;-79
2022/04/09 16:51:45;;;;;;;2.33;0.80;;;;;11.10;100990.00;;;;10545628;27;20553;-79
2022/04/09 16:56:48;;;;;;;1.47;1.00;;;;;10.80;101003.00;;;;10558988;27;20199;-79
2022/04/09 17:01:55;;;;;;;4.40;1.20;;;;;10.70;101006.00;;;;10528536;28;20208;-79
2022/04/09 17:06:57;;;;;;;2.30;1.03;;;;;10.70;101012.00;;;;10506985;28;20187;-79
2022/04/09 17:11:59;;;;;;;3.77;1.20;;;;;10.70;101023.00;;;;10535797;28;20218;-79
2022/04/09 17:17:03;;;;;;;3.53;1.10;;;;;10.80;101030.00;;;;10551477;28;20188;-79
2022/04/09 17:22:04;;;;;;;4.10;1.30;;;;;10.60;101022.00;;;;10531602;27;20204;-79
2022/04/09 17:27:08;;;;;;;6.47;2.00;;;;;10.20;101036.00;;;;10565407;27;20192;-79
2022/04/09 17:32:10;;;;;;;2.57;1.47;;;;;10.10;101037.00;;;;10512857;28;20189;-79
2022/04/09 17:37:11;;;;;;;4.90;1.63;;;;;9.90;101050.00;;;;10500177;27;20247;-79
2022/04/09 17:42:13;;;;;;;6.90;2.73;;;;;9.70;101080.00;;;;10523511;28;20295;-80
2022/04/09 17:47:23;;;;;;;3.40;1.63;;;;;9.10;101104.00;;;;10522373;28;20250;-79
2022/04/09 17:52:25;;;;;;;1.93;1.40;;;;;8.30;101114.00;;;;10510182;28;20222;-79
2022/04/09 17:57:28;;;;;;;1.77;1.37;;;;;7.60;101136.00;;;;10504887;28;20203;-79
2022/04/09 18:02:31;;;;;;;3.57;1.77;;;;;7.20;101138.00;;;;10531372;28;20212;-80
2022/04/09 18:07:33;;;;;;;2.70;1.67;;;;;6.90;101140.00;;;;10559215;28;20603;-80
2022/04/09 18:12:40;;;;;;;3.33;1.70;;;;;6.70;101149.00;;;;10520688;28;20287;-79
2022/04/09 18:17:46;;;;;;;3.80;2.60;;;;;6.60;101147.00;;;;10591447;27;20192;-82
2022/04/09 18:22:52;;;;;;;4.60;2.13;;;;;6.50;101153.00;;;;10508572;28;20290;-80
2022/04/09 18:27:59;;;;;;;4.20;1.60;;;;;6.40;101140.00;;;;10527429;27;20192;-80
2022/04/09 18:33:02;;;;;;;3.17;1.60;;;;;6.40;101138.00;;;;10530770;28;20207;-80
2022/04/09 18:38:05;;;;;;;4.60;2.60;;;;;6.30;101157.00;;;;10547312;28;20270;-80
2022/04/09 18:43:07;;;;;;;4.27;1.80;;;;;6.20;101166.00;;;;10549702;28;20279;-80
2022/04/09 18:48:10;;;;;;;1.63;1.30;;;;;6.10;101170.00;;;;10515498;28;20226;-80
2022/04/09 18:53:13;;;;;;;6.13;2.30;;;;;6.10;101179.00;;;;10527999;28;20697;-80
2022/04/09 18:58:14;;;;;;;4.30;1.77;;;;;6.10;101178.00;;;;10531061;28;20192;-80
2022/04/09 19:03:16;;;;;;;2.37;1.90;;;;;5.80;101207.00;;;;10525675;28;20617;-79
2022/04/09 19:08:23;;;;;;;2.47;1.77;;;;;5.40;101200.00;;;;10510263;28;20188;-79
2022/04/09 19:13:27;;;;;;;3.87;2.03;;;;;5.30;101213.00;;;;10529705;28;20192;-80
2022/04/09 19:18:29;;;;;;;2.50;1.73;;;;;5.30;101218.00;;;;10540410;28;20555;-79
2022/04/09 19:23:35;;;;;;;2.20;1.60;;;;;5.40;101219.00;;;;10547445;28;20621;-79
2022/04/09 19:28:37;;;;;;;5.10;1.90;;;;;5.40;101230.00;;;;10512789;28;20207;-79
2022/04/09 19:33:39;;;;;;;3.33;2.10;;;;;5.50;101225.00;;;;10513228;28;20184;-80
2022/04/09 19:38:41;;;;;;;4.07;2.27;;;;;5.50;101234.00;;;;10526203;28;20192;-79
2022/04/09 19:43:43;;;;;;;4.17;1.90;;;;;5.60;101239.00;;;;10526060;28;20224;-80
2022/04/09 19:48:45;;;;;;;4.93;2.10;;;;;5.70;101229.00;;;;10544224;28;20222;-80
2022/04/09 19:53:47;;;;;;;6.63;2.40;;;;;5.70;101250.00;;;;10529755;28;20192;-80
2022/04/09 19:58:49;;;;;;;4.97;2.27;;;;;5.70;101247.00;;;;10542243;28;20279;-80
2022/04/09 20:03:52;;;;;;;5.50;2.20;;;;;5.70;101241.00;;;;10542413;28;20220;-80
2022/04/09 20:08:54;;;;;;;6.17;2.70;;;;;5.70;101250.00;;;;10524185;28;20188;-80
2022/04/09 20:13:56;;;;;;;3.30;1.87;;;;;5.60;101254.00;;;;10505894;28;20263;-80
2022/04/09 20:18:58;;;;;;;4.90;2.23;;;;;5.50;101257.00;;;;10495027;28;20224;-80
2022/04/09 20:24:07;;;;;;;3.93;2.50;;;;;5.30;101262.00;;;;10529823;28;20188;-80
2022/04/09 20:29:09;;;;;;;3.40;2.20;;;;;5.10;101266.00;;;;10504527;28;20219;-81
2022/04/09 20:34:11;;;;;;;6.07;2.57;;;;;5.00;101259.00;;;;10547759;28;20192;-80
2022/04/09 20:39:13;;;;;;;2.67;2.10;;;;;4.90;101265.00;;;;10535339;28;20216;-81
2022/04/09 20:44:15;;;;;;;3.13;2.37;;;;;4.70;101268.00;;;;10537412;28;20251;-80
2022/04/09 20:49:18;;;;;;;5.50;2.50;;;;;4.60;101275.00;;;;10514778;28;20196;-80
2022/04/09 20:54:21;;;;;;;5.23;2.63;;;;;4.50;101276.00;;;;10536796;28;20189;-80
2022/04/09 20:59:23;;;;;;;6.00;2.90;;;;;4.30;101275.00;;;;10539524;28;20218;-81
2022/04/09 21:04:28;;;;;;;5.17;2.70;;;;;4.00;101282.00;;;;10535180;28;20229;-81
2022/04/09 21:09:30;;;;;;;6.03;3.20;;;;;3.80;101294.00;;;;10550736;28;20196;-81
2022/04/09 21:14:32;;;;;;;4.87;3.07;;;;;3.70;101289.00;;;;10553616;28;20203;-81
2022/04/09 21:19:33;;;;;;;9.13;2.93;;;;;3.60;101290.00;;;;10547421;28;20212;-80
2022/04/09 21:24:35;;;;;;;4.63;3.07;;;;;3.50;101296.00;;;;10550505;28;20207;-81
2022/04/09 21:29:37;;;;;;;7.00;3.70;;;;;3.40;101293.00;;;;10544776;27;20214;-81
2022/04/09 21:34:39;;;;;;;5.87;3.77;;;;;3.30;101287.00;;;;10537222;28;20192;-81
2022/04/09 21:39:41;;;;;;;5.13;3.53;;;;;3.30;101285.00;;;;10530471;28;20261;-81
2022/04/09 21:44:43;;;;;;;7.63;3.80;;;;;3.20;101287.00;;;;10534006;28;20301;-81
2022/04/09 21:49:45;;;;;;;8.87;3.97;;;;;3.20;101292.00;;;;10569939;28;20200;-81
2022/04/09 21:54:47;;;;;;;4.73;3.60;;;;;3.20;101306.00;;;;10515095;28;20720;-81
2022/04/09 21:59:49;;;;;;;6.00;4.10;;;;;3.20;101312.00;;;;10484134;28;20243;-81
2022/04/09 22:04:51;;;;;;;7.70;4.13;;;;;3.10;101320.00;;;;10543902;28;20199;-81
2022/04/09 22:09:54;;;;;;;6.83;3.90;;;;;3.00;101325.00;;;;10510138;28;20195;-81
2022/04/09 22:14:56;;;;;;;5.20;3.80;;;;;2.90;101316.00;;;;10527846;28;20631;-81
2022/04/09 22:19:58;;;;;;;9.90;4.03;;;;;2.80;101320.00;;;;10537781;28;20605;-81
2022/04/09 22:25:00;;;;;;;6.00;3.30;;;;;2.70;101321.00;;;;10555749;28;20214;-82
2022/04/09 22:30:03;;;;;;;6.67;4.57;;;;;2.60;101309.00;;;;10534820;28;20643;-81
2022/04/09 22:35:06;;;;;;;8.23;4.13;;;;;2.60;101316.00;;;;10513295;28;20234;-81
2022/04/09 22:40:12;;;;;;;8.40;4.53;;;;;2.60;101321.00;;;;10536769;28;20237;-82
2022/04/09 22:45:15;;;;;;;6.87;4.40;;;;;2.80;101326.00;;;;10547896;28;20245;-82
2022/04/09 22:50:16;;;;;;;9.13;6.27;;;;;2.90;101330.00;;;;10516628;28;20200;-81
2022/04/09 22:55:18;;;;;;;7.17;6.03;;;;;3.10;101333.00;;;;10534657;27;20218;-82
2022/04/09 23:00:20;;;;;;;9.40;4.80;;;;;3.30;101340.00;;;;10512955;28;20204;-81
2022/04/09 23:05:22;;;;;;;10.80;5.47;;;;;3.50;101343.00;;;;10500129;28;20200;-82
2022/04/09 23:10:24;;;;;;;13.03;5.60;;;;;3.60;101348.00;;;;10512117;28;20193;-81
2022/04/09 23:15:26;;;;;;;7.40;5.10;;;;;3.70;101347.00;;;;10538237;28;20283;-81
2022/04/09 23:20:28;;;;;;;10.63;6.07;;;;;3.80;101373.00;;;;10526223;28;20205;-82
2022/04/09 23:25:29;;;;;;;8.43;6.03;;;;;3.90;101368.00;;;;10542462;28;20196;-81
2022/04/09 23:30:31;;;;;;;7.80;6.03;;;;;3.90;101377.00;;;;10490890;28;20234;-81
2022/04/09 23:35:34;;;;;;;9.50;6.17;;;;;4.00;101369.00;;;;10503695;28;20196;-82
2022/04/09 23:40:35;;;;;;;11.83;6.10;;;;;4.00;101374.00;;;;10495286;28;20741;-81
2022/04/09 23:45:37;;;;;;;13.30;7.30;;;;;4.10;101365.00;;;;10517418;28;20235;-81
2022/04/09 23:50:40;;;;;;;8.80;6.00;;;;;4.20;101369.00;;;;10499493;28;20185;-81
2022/04/09 23:55:43;;;;;;;8.47;5.83;;;;;4.20;101376.00;;;;10536957;28;20263;-81
